Archival Weather

South Haven Area Rgnl

South Haven, Michigan (KLWA)

Report from: Thursday, September 21, 2023 4:35 PM EDT
Current time: Sunday, July 14, 2024 6:56 AM EDT

Current weather – Weather history – Daily summaries
Weather forecast

Temperature25.9°C (78.6°F)
Dew point18.0°C (64.4°F)
Winds Calm
Visibility10 mi. (16.1 km)
Clouds Sky clear
Altimeter30.20 in.Hg (1023 mB)
Relative humidity62 %
Density altitude1,226 ft. (374 m)
Remarks Fully automated report
Automated weather observing station with precipitation discriminator
Flight conditions Visual Meteorological Conditions
Raw dataKLWA 212035Z AUTO 00000KT 10SM CLR 26/18 A3020 RMK AO2 T02590180
An error has occurred. This application may no longer respond until reloaded. Reload 🗙